createdAt,value
2018-09-05T00:00:12.089Z,99.5
2018-09-05T00:05:14.627Z,99.5
2018-09-05T00:10:16.647Z,99.400002
2018-09-05T00:15:18.928Z,99.5
2018-09-05T00:20:21.334Z,99.599998
2018-09-05T00:25:23.658Z,99.599998
2018-09-05T00:30:25.818Z,99.900002
2018-09-05T00:35:28.034Z,99.900002
2018-09-05T00:40:30.594Z,99.900002
2018-09-05T00:45:32.718Z,99.900002
2018-09-05T00:50:35.067Z,99.900002
2018-09-05T00:55:37.330Z,99.900002
2018-09-05T01:00:39.731Z,99.900002
2018-09-05T01:05:42.012Z,99.900002
2018-09-05T01:10:44.182Z,99.900002
2018-09-05T01:15:46.434Z,99.900002
2018-09-05T01:20:48.991Z,99.900002
2018-09-05T01:25:51.075Z,99.900002
2018-09-05T01:30:53.703Z,99.900002
2018-09-05T01:35:55.630Z,99.900002
2018-09-05T01:40:57.932Z,99.900002
2018-09-05T01:46:00.461Z,99.900002
2018-09-05T01:51:02.838Z,99.900002
2018-09-05T01:56:05.754Z,99.900002
2018-09-05T02:01:07.074Z,99.900002
2018-09-05T02:06:09.420Z,99.900002
2018-09-05T02:11:11.715Z,99.900002
2018-09-05T02:16:14.142Z,99.900002
2018-09-05T02:21:16.407Z,99.900002
2018-09-05T02:26:18.696Z,99.900002
2018-09-05T02:31:20.941Z,99.900002
2018-09-05T02:36:23.449Z,99.900002
2018-09-05T02:41:25.544Z,99.900002
2018-09-05T02:46:27.963Z,99.900002
2018-09-05T02:51:30.089Z,99.900002
2018-09-05T02:56:32.308Z,99.900002
2018-09-05T03:01:34.788Z,99.900002
2018-09-05T03:06:36.989Z,99.900002
2018-09-05T03:11:39.357Z,99.900002
2018-09-05T03:16:41.529Z,99.900002
2018-09-05T03:21:43.847Z,99.900002
2018-09-05T03:26:46.242Z,99.900002
2018-09-05T03:31:48.456Z,99.900002
2018-09-05T03:36:50.790Z,99.900002
2018-09-05T03:41:52.959Z,99.900002
2018-09-05T03:46:55.293Z,99.900002
2018-09-05T03:51:57.739Z,99.900002
2018-09-05T03:56:59.848Z,99.900002
2018-09-05T04:02:02.859Z,99.900002
2018-09-05T04:07:04.584Z,99.900002
2018-09-05T04:12:06.840Z,99.900002
2018-09-05T04:17:10.385Z,99.900002
2018-09-05T04:22:11.650Z,99.900002
2018-09-05T04:27:13.704Z,99.900002
2018-09-05T04:32:16.041Z,99.900002
2018-09-05T04:37:18.245Z,99.900002
2018-09-05T04:42:20.740Z,99.900002
2018-09-05T04:47:22.877Z,99.900002
2018-09-05T04:52:25.179Z,99.900002
2018-09-05T04:57:27.462Z,99.900002
2018-09-05T05:02:29.819Z,99.900002
2018-09-05T05:07:31.994Z,99.900002
2018-09-05T05:12:34.352Z,99.900002
2018-09-05T05:17:36.613Z,99.900002
2018-09-05T05:22:39.133Z,99.900002
2018-09-05T05:27:41.214Z,99.900002
2018-09-05T05:32:43.784Z,99.900002
2018-09-05T05:37:45.817Z,99.900002
2018-09-05T05:42:48.116Z,99.900002
2018-09-05T05:47:50.398Z,99.900002
2018-09-05T05:52:52.696Z,99.900002
2018-09-05T05:57:55.008Z,99.900002
2018-09-05T06:02:57.402Z,99.900002
2018-09-05T06:07:59.692Z,99.900002
2018-09-05T06:13:01.983Z,99.900002
2018-09-05T06:18:04.312Z,99.900002
2018-09-05T06:23:06.549Z,99.900002
2018-09-05T06:28:08.726Z,99.900002
2018-09-05T06:33:10.983Z,99.900002
2018-09-05T06:38:13.478Z,99.900002
2018-09-05T06:43:15.627Z,99.900002
2018-09-05T06:48:17.963Z,99.900002
2018-09-05T06:53:20.258Z,99.900002
2018-09-05T06:58:22.797Z,99.900002
2018-09-05T07:03:24.806Z,99.900002
2018-09-05T07:08:27.115Z,99.900002
2018-09-05T07:13:29.452Z,99.900002
2018-09-05T07:18:31.646Z,99.900002
2018-09-05T07:23:34.133Z,99.900002
2018-09-05T07:28:36.409Z,99.900002
2018-09-05T07:33:38.749Z,99.400002
2018-09-05T07:38:40.937Z,96.599998
2018-09-05T07:43:43.317Z,96
2018-09-05T07:48:45.506Z,95.800003
2018-09-05T07:53:47.875Z,96.599998
2018-09-05T07:58:50.042Z,97.5
2018-09-05T08:03:52.343Z,96
2018-09-05T08:08:54.604Z,96.099998
2018-09-05T08:13:57.011Z,93.099998
2018-09-05T08:18:59.245Z,93.5
2018-09-05T08:24:01.534Z,92.900002
2018-09-05T08:29:04.103Z,93.300003
2018-09-05T08:34:06.169Z,91.599998
2018-09-05T08:39:08.463Z,91.099998
2018-09-05T08:44:10.873Z,89.400002
2018-09-05T08:49:12.969Z,87.400002
2018-09-05T08:54:15.394Z,85.5
2018-09-05T08:59:17.589Z,86.199997
2018-09-05T09:04:21.321Z,86.199997
2018-09-05T09:09:22.214Z,86.300003
2018-09-05T09:14:24.553Z,84.599998
2018-09-05T09:19:26.713Z,83.800003
2018-09-05T09:24:29.111Z,86.099998
2018-09-05T09:29:31.362Z,85.400002
2018-09-05T09:34:33.570Z,84.400002
2018-09-05T09:39:36.053Z,83.699997
2018-09-05T09:44:39.738Z,81.400002
2018-09-05T09:49:40.549Z,80.199997
2018-09-05T09:54:42.904Z,81.5
2018-09-05T09:59:45.200Z,78.599998
2018-09-05T10:04:47.479Z,74.900002
2018-09-05T10:09:49.890Z,74.5
2018-09-05T10:14:52.198Z,75.099998
2018-09-05T10:19:54.620Z,79.300003
2018-09-05T10:24:56.573Z,71
2018-09-05T10:29:58.872Z,73.5
2018-09-05T10:35:01.264Z,70.900002
2018-09-05T10:40:03.612Z,72.300003
2018-09-05T10:45:05.839Z,75.300003
2018-09-05T10:50:08.094Z,72.599998
2018-09-05T10:55:10.535Z,75.199997
2018-09-05T11:00:12.731Z,76.699997
2018-09-05T11:05:14.997Z,79.199997
2018-09-05T11:10:17.233Z,75
2018-09-05T11:15:21.116Z,77.300003
2018-09-05T11:20:21.886Z,74.199997
2018-09-05T11:25:25.467Z,73.900002
2018-09-05T11:30:26.812Z,72.199997
2018-09-05T11:35:28.804Z,74.900002
2018-09-05T11:40:31.060Z,74.800003
2018-09-05T11:45:33.308Z,71.900002
2018-09-05T11:50:35.626Z,68.900002
2018-09-05T11:55:37.984Z,68.699997
2018-09-05T12:00:40.367Z,70.300003
2018-09-05T12:05:42.443Z,71.900002
2018-09-05T12:10:44.769Z,72.5
2018-09-05T12:15:47.156Z,73
2018-09-05T12:20:49.465Z,67.599998
2018-09-05T12:25:51.746Z,63.5
2018-09-05T12:30:54.630Z,62.099998
2018-09-05T12:35:56.297Z,66
2018-09-05T12:40:58.562Z,60.799999
2018-09-05T12:46:00.901Z,61.799999
2018-09-05T12:51:04.482Z,58.799999
2018-09-05T12:56:06.471Z,63.099998
2018-09-05T13:01:08.113Z,62.5
2018-09-05T13:06:10.064Z,66
2018-09-05T13:11:12.360Z,66.599998
2018-09-05T13:16:14.668Z,70.199997
2018-09-05T13:21:17.023Z,67.900002
2018-09-05T13:26:19.270Z,65.599998
2018-09-05T13:31:21.458Z,63.299999
2018-09-05T13:36:23.787Z,59.299999
2018-09-05T13:41:26.101Z,61.299999
2018-09-05T13:46:28.530Z,61.200001
2018-09-05T13:51:30.707Z,58.700001
2018-09-05T13:56:34.555Z,58.799999
2018-09-05T14:01:35.212Z,59
2018-09-05T14:06:37.638Z,58.400002
2018-09-05T14:11:39.823Z,58.799999
2018-09-05T14:16:42.169Z,59.700001
2018-09-05T14:21:44.562Z,63.799999
2018-09-05T14:26:46.698Z,64.099998
2018-09-05T14:31:50.586Z,63.700001
2018-09-05T14:36:51.516Z,63.700001
2018-09-05T14:41:53.803Z,65
2018-09-05T14:46:55.924Z,63.900002
2018-09-05T14:51:58.289Z,66.300003
2018-09-05T14:58:13.003Z,64
2018-09-05T15:02:02.879Z,65.099998
2018-09-05T15:07:05.146Z,66.900002
2018-09-05T15:13:26.758Z,65.800003
2018-09-05T15:17:09.824Z,66
2018-09-05T15:22:12.006Z,63.799999
2018-09-05T15:27:14.236Z,61.5
2018-09-05T15:32:16.599Z,61.299999
2018-09-05T15:38:03.557Z,60.599998
2018-09-05T15:42:21.186Z,62
2018-09-05T15:49:26.315Z,63.400002
2018-09-05T15:52:25.759Z,65.800003
2018-09-05T15:57:38.123Z,66.400002
2018-09-05T16:02:34.593Z,65.800003
2018-09-05T16:07:42.167Z,65.5
2018-09-05T16:12:34.896Z,67.099998
2018-09-05T16:17:37.260Z,65.199997
2018-09-05T16:22:39.542Z,67.300003
2018-09-05T16:27:41.862Z,67.199997
2018-09-05T16:32:44.158Z,65.699997
2018-09-05T16:37:46.397Z,68
2018-09-05T16:42:48.652Z,67.800003
2018-09-05T16:47:51.021Z,72.199997
2018-09-05T16:52:53.233Z,73.099998
2018-09-05T16:57:55.589Z,73.599998
2018-09-05T17:02:57.904Z,73.900002
2018-09-05T17:08:00.182Z,75.599998
2018-09-05T17:13:02.424Z,70.5
2018-09-05T17:18:04.689Z,71
2018-09-05T17:23:06.986Z,72.099998
2018-09-05T17:28:09.362Z,71.900002
2018-09-05T17:33:11.628Z,72.599998
2018-09-05T17:38:14.040Z,67.199997
2018-09-05T17:43:20.392Z,70.199997
2018-09-05T17:48:20.367Z,69.5
2018-09-05T17:53:20.773Z,72.199997
2018-09-05T17:58:23.118Z,72.199997
2018-09-05T18:03:25.512Z,73.099998
2018-09-05T18:08:27.624Z,74.800003
2018-09-05T18:13:30.052Z,81.199997
2018-09-05T18:18:32.309Z,85.099998
2018-09-05T18:23:34.611Z,87.199997
2018-09-05T18:28:36.885Z,90.900002
2018-09-05T18:33:39.342Z,92.300003
2018-09-05T18:38:41.401Z,95.300003
2018-09-05T18:43:43.790Z,95.300003
2018-09-05T18:48:46.139Z,94.199997
2018-09-05T18:53:48.447Z,93.800003
2018-09-05T18:58:50.674Z,94.199997
2018-09-05T19:03:52.961Z,93.800003
2018-09-05T19:08:55.270Z,93.699997
2018-09-05T19:13:57.632Z,94.199997
2018-09-05T19:18:59.878Z,95
2018-09-05T19:24:02.162Z,95.900002
2018-09-05T19:29:04.535Z,97.199997
2018-09-05T19:34:06.631Z,98.5
2018-09-05T19:39:09.056Z,99.900002
2018-09-05T19:44:11.247Z,99.900002
2018-09-05T19:49:13.693Z,99.900002
2018-09-05T19:54:15.932Z,98.400002
2018-09-05T19:59:18.228Z,98.099998
2018-09-05T20:04:20.641Z,97
2018-09-05T20:09:22.833Z,97
2018-09-05T20:14:25.192Z,97.699997
2018-09-05T20:19:27.496Z,98
2018-09-05T20:24:29.688Z,97.900002
2018-09-05T20:29:32.067Z,97.699997
2018-09-05T20:34:34.195Z,98.599998
2018-09-05T20:39:36.551Z,99.900002
2018-09-05T20:44:38.881Z,99.900002
2018-09-05T20:49:41.147Z,99.900002
2018-09-05T20:54:44.724Z,99.900002
2018-09-05T20:59:46.743Z,99.900002
2018-09-05T21:04:48.003Z,99.900002
2018-09-05T21:09:50.330Z,99.900002
2018-09-05T21:14:52.653Z,99.900002
2018-09-05T21:19:54.886Z,99.900002
2018-09-05T21:24:57.294Z,99.900002
2018-09-05T21:29:59.431Z,99.900002
2018-09-05T21:35:01.869Z,99.900002
2018-09-05T21:40:04.504Z,99.900002
2018-09-05T21:45:06.455Z,99.900002
2018-09-05T21:50:08.714Z,99.900002
2018-09-05T21:55:10.997Z,99.900002
2018-09-05T22:00:13.331Z,99.900002
2018-09-05T22:05:15.564Z,99.900002
2018-09-05T22:10:17.842Z,99.900002
2018-09-05T22:15:24.362Z,99.900002
2018-09-05T22:20:22.508Z,99.900002
2018-09-05T22:25:24.779Z,99.900002
2018-09-05T22:30:27.084Z,99.900002
2018-09-05T22:35:29.257Z,99.900002
2018-09-05T22:40:31.636Z,99.900002
2018-09-05T22:45:33.890Z,99.900002
2018-09-05T22:50:36.241Z,99.900002
2018-09-05T22:55:38.522Z,99.900002
2018-09-05T23:00:40.783Z,99.900002
2018-09-05T23:05:43.066Z,99.900002
2018-09-05T23:10:45.429Z,99.900002
2018-09-05T23:15:47.750Z,99.900002
2018-09-05T23:20:49.976Z,99.900002
2018-09-05T23:25:52.375Z,99.900002
2018-09-05T23:30:54.683Z,99.900002
2018-09-05T23:35:56.919Z,99.900002
2018-09-05T23:40:59.202Z,99.900002
2018-09-05T23:46:01.459Z,99.900002
2018-09-05T23:51:03.778Z,99.900002
2018-09-05T23:56:06.060Z,99.900002
